createdAt,value
2023-05-17T00:00:55.081Z,25.00
2023-05-17T00:01:55.078Z,0.00
2023-05-17T00:02:55.105Z,0.00
2023-05-17T00:03:55.067Z,0.00
2023-05-17T00:04:55.211Z,0.00
2023-05-17T00:05:55.120Z,2.28
2023-05-17T00:06:55.044Z,12.84
2023-05-17T00:07:55.071Z,24.73
2023-05-17T00:08:55.068Z,25.95
2023-05-17T00:09:55.037Z,25.00
2023-05-17T00:10:55.020Z,24.69
2023-05-17T00:11:55.043Z,25.08
2023-05-17T00:12:54.998Z,25.00
2023-05-17T00:13:55.000Z,25.88
2023-05-17T00:14:55.007Z,25.76
2023-05-17T00:15:54.983Z,25.00
2023-05-17T00:16:54.995Z,25.09
2023-05-17T00:17:55.009Z,26.56
2023-05-17T00:18:55.069Z,25.00
2023-05-17T00:19:55.081Z,25.00
2023-05-17T00:20:54.948Z,25.07
2023-05-17T00:21:54.948Z,27.51
2023-05-17T00:22:54.932Z,25.20
2023-05-17T00:23:54.927Z,28.65
2023-05-17T00:24:54.920Z,26.38
2023-05-17T00:25:54.905Z,25.00
2023-05-17T00:26:54.903Z,26.30
2023-05-17T00:27:54.993Z,26.30
2023-05-17T00:28:54.904Z,27.68
2023-05-17T00:29:54.898Z,25.31
2023-05-17T00:30:54.878Z,26.56
2023-05-17T00:31:54.876Z,27.69
2023-05-17T00:32:54.959Z,26.66
2023-05-17T00:33:54.860Z,26.21
2023-05-17T00:34:54.917Z,26.40
2023-05-17T00:35:54.840Z,26.57
2023-05-17T00:36:54.862Z,25.85
2023-05-17T00:37:54.833Z,27.99
2023-05-17T00:38:54.818Z,26.31
2023-05-17T00:39:54.814Z,27.92
2023-05-17T00:40:54.811Z,26.65
2023-05-17T00:41:54.814Z,25.57
2023-05-17T00:42:54.804Z,25.00
2023-05-17T00:43:54.885Z,25.99
2023-05-17T00:44:54.799Z,29.64
2023-05-17T00:45:54.777Z,28.91
2023-05-17T00:46:54.770Z,25.95
2023-05-17T00:47:54.869Z,25.00
2023-05-17T00:48:54.755Z,27.28
2023-05-17T00:49:54.744Z,27.06
2023-05-17T00:50:54.737Z,25.00
2023-05-17T00:51:54.731Z,27.59
2023-05-17T00:52:54.752Z,23.69
2023-05-17T00:53:54.766Z,26.94
2023-05-17T00:54:54.759Z,28.91
2023-05-17T00:55:54.767Z,29.27
2023-05-17T00:56:54.768Z,27.78
2023-05-17T00:57:54.765Z,30.29
2023-05-17T00:59:01.876Z,28.22
2023-05-17T00:59:54.782Z,28.72
2023-05-17T01:00:54.780Z,28.82
2023-05-17T01:01:54.771Z,26.87
2023-05-17T01:02:54.843Z,28.47
2023-05-17T01:03:54.910Z,28.03
2023-05-17T01:04:54.834Z,26.96
2023-05-17T01:05:54.755Z,25.41
2023-05-17T01:06:54.748Z,27.92
2023-05-17T01:07:54.733Z,25.18
2023-05-17T01:08:54.741Z,27.52
2023-05-17T01:09:54.713Z,26.82
2023-05-17T01:10:54.707Z,26.69
2023-05-17T01:11:54.699Z,28.05
2023-05-17T01:12:54.693Z,27.04
2023-05-17T01:13:54.718Z,26.05
2023-05-17T01:14:54.850Z,25.00
2023-05-17T01:15:54.792Z,26.26
2023-05-17T01:16:54.829Z,25.07
2023-05-17T01:17:54.952Z,27.52
2023-05-17T01:18:54.977Z,27.77
2023-05-17T01:19:55.007Z,25.29
2023-05-17T01:20:54.963Z,28.71
2023-05-17T01:21:55.020Z,26.72
2023-05-17T01:22:55.022Z,27.90
2023-05-17T01:23:55.067Z,28.16
2023-05-17T01:24:55.107Z,27.19
2023-05-17T01:25:55.126Z,28.47
2023-05-17T01:26:55.181Z,25.75
2023-05-17T01:27:55.200Z,26.95
2023-05-17T01:28:55.219Z,28.20
2023-05-17T01:29:55.260Z,28.01
2023-05-17T01:30:55.410Z,27.57
2023-05-17T01:31:55.327Z,29.12
2023-05-17T01:32:55.476Z,28.77
2023-05-17T01:33:55.483Z,27.56
2023-05-17T01:34:55.435Z,27.77
2023-05-17T01:35:55.473Z,26.67
2023-05-17T01:36:55.540Z,25.39
2023-05-17T01:37:55.582Z,26.65
2023-05-17T01:38:55.606Z,28.50
2023-05-17T01:39:55.650Z,30.75
2023-05-17T01:40:55.669Z,28.70
2023-05-17T01:41:55.701Z,26.94
2023-05-17T01:42:55.729Z,28.36
2023-05-17T01:43:55.791Z,28.05
2023-05-17T01:44:55.753Z,27.89
2023-05-17T01:45:55.787Z,29.25
2023-05-17T01:46:56.030Z,30.02
2023-05-17T01:47:55.928Z,30.56
2023-05-17T01:48:56.114Z,29.19
2023-05-17T01:49:55.925Z,27.39
2023-05-17T01:50:55.952Z,29.46
2023-05-17T01:51:55.973Z,28.51
2023-05-17T01:52:56.027Z,28.34
2023-05-17T01:53:56.043Z,29.86
2023-05-17T01:54:56.057Z,28.87
2023-05-17T01:55:56.103Z,31.43
2023-05-17T01:56:56.158Z,27.89
2023-05-17T01:57:56.173Z,27.14
2023-05-17T01:58:56.193Z,30.34
2023-05-17T01:59:56.227Z,29.68
2023-05-17T02:00:56.260Z,29.27
2023-05-17T02:01:56.301Z,27.36
2023-05-17T02:02:56.511Z,26.69
2023-05-17T02:03:56.413Z,29.95
2023-05-17T02:04:56.472Z,28.63
2023-05-17T02:05:56.497Z,27.69
2023-05-17T02:06:56.511Z,26.80
2023-05-17T02:07:56.580Z,28.34
2023-05-17T02:08:56.554Z,27.38
2023-05-17T02:09:56.566Z,27.75
2023-05-17T02:10:56.582Z,29.15
2023-05-17T02:11:56.605Z,25.17
2023-05-17T02:12:56.625Z,29.84
2023-05-17T02:13:56.654Z,28.39
2023-05-17T02:14:56.678Z,27.25
2023-05-17T02:15:56.698Z,28.63
2023-05-17T02:16:56.712Z,26.08
2023-05-17T02:17:56.788Z,28.90
2023-05-17T02:18:56.951Z,30.48
2023-05-17T02:19:56.831Z,29.37
2023-05-17T02:20:56.885Z,27.95
2023-05-17T02:21:56.945Z,26.11
2023-05-17T02:22:56.956Z,26.41
2023-05-17T02:23:56.987Z,25.16
2023-05-17T02:24:57.040Z,28.92
2023-05-17T02:25:57.051Z,30.90
2023-05-17T02:26:57.100Z,29.09
2023-05-17T02:27:57.130Z,29.04
2023-05-17T02:28:57.183Z,27.89
2023-05-17T02:29:57.204Z,27.24
2023-05-17T02:30:57.230Z,26.72
2023-05-17T02:31:57.277Z,27.72
2023-05-17T02:32:57.374Z,27.77
2023-05-17T02:33:57.441Z,26.09
2023-05-17T02:34:57.583Z,27.63
2023-05-17T02:35:57.468Z,27.04
2023-05-17T02:36:57.539Z,25.69
2023-05-17T02:37:57.597Z,25.00
2023-05-17T02:38:57.605Z,29.57
2023-05-17T02:39:57.652Z,27.51
2023-05-17T02:40:57.701Z,26.53
2023-05-17T02:41:57.770Z,29.32
2023-05-17T02:42:57.795Z,26.76
2023-05-17T02:43:57.916Z,25.56
2023-05-17T02:44:57.901Z,26.20
2023-05-17T02:45:57.933Z,28.26
2023-05-17T02:46:58.000Z,30.86
2023-05-17T02:47:58.059Z,26.89
2023-05-17T02:48:58.085Z,27.86
2023-05-17T02:49:58.140Z,26.84
2023-05-17T02:50:58.300Z,27.62
2023-05-17T02:51:58.212Z,27.63
2023-05-17T02:52:58.255Z,25.00
2023-05-17T02:53:58.292Z,27.99
2023-05-17T02:54:58.335Z,26.88
2023-05-17T02:55:58.904Z,27.41
2023-05-17T02:56:58.381Z,28.00
2023-05-17T02:57:58.424Z,29.82
2023-05-17T02:58:58.442Z,28.17
2023-05-17T02:59:58.479Z,29.16
2023-05-17T03:00:58.515Z,29.02
2023-05-17T03:01:58.519Z,28.51
2023-05-17T03:02:58.615Z,27.54
2023-05-17T03:03:58.769Z,26.67
2023-05-17T03:04:58.599Z,31.13
2023-05-17T03:05:58.646Z,26.91
2023-05-17T03:06:58.884Z,28.50
2023-05-17T03:07:58.761Z,25.51
2023-05-17T03:08:58.755Z,29.51
2023-05-17T03:09:58.777Z,26.56
2023-05-17T03:10:58.819Z,26.08
2023-05-17T03:11:58.849Z,25.19
2023-05-17T03:12:58.878Z,27.57
2023-05-17T03:13:58.905Z,27.38
2023-05-17T03:14:58.936Z,28.16
2023-05-17T03:15:58.990Z,27.71
2023-05-17T03:16:59.043Z,25.70
2023-05-17T03:17:59.157Z,27.96
2023-05-17T03:18:59.251Z,29.81
2023-05-17T03:19:59.165Z,28.89
2023-05-17T03:20:59.189Z,27.32
2023-05-17T03:21:59.242Z,27.47
2023-05-17T03:22:59.359Z,25.00
2023-05-17T03:23:59.297Z,25.16
2023-05-17T03:24:59.325Z,26.37
2023-05-17T03:25:59.367Z,28.09
2023-05-17T03:26:59.377Z,29.68
2023-05-17T03:27:59.403Z,31.11
2023-05-17T03:28:59.434Z,29.70
2023-05-17T03:29:59.451Z,28.98
2023-05-17T03:30:59.623Z,29.59
2023-05-17T03:31:59.496Z,29.59
2023-05-17T03:32:59.561Z,28.77
2023-05-17T03:33:59.705Z,29.63
2023-05-17T03:34:59.558Z,29.54
2023-05-17T03:35:59.591Z,28.56
2023-05-17T03:36:59.649Z,27.14
2023-05-17T03:37:59.694Z,26.79
2023-05-17T03:38:59.866Z,27.49
2023-05-17T03:39:59.782Z,26.54
2023-05-17T03:40:59.835Z,25.00
2023-05-17T03:41:59.872Z,26.70
2023-05-17T03:42:59.894Z,27.95
2023-05-17T03:43:59.942Z,30.45
2023-05-17T03:44:59.960Z,28.45
2023-05-17T03:46:00.006Z,30.74
2023-05-17T03:47:00.051Z,27.46
2023-05-17T03:48:00.191Z,28.47
2023-05-17T03:49:00.189Z,27.60
2023-05-17T03:50:00.203Z,27.59
2023-05-17T03:51:00.189Z,25.05
2023-05-17T03:52:00.212Z,25.61
2023-05-17T03:53:00.234Z,25.00
2023-05-17T03:54:00.264Z,26.75
2023-05-17T03:55:00.486Z,27.93
2023-05-17T03:56:00.308Z,27.96
2023-05-17T03:57:00.334Z,28.79
2023-05-17T03:58:00.370Z,27.06
2023-05-17T03:59:00.392Z,25.06
2023-05-17T04:00:00.442Z,26.24
2023-05-17T04:01:00.454Z,30.34
2023-05-17T04:02:00.475Z,26.37
2023-05-17T04:03:00.572Z,29.91
2023-05-17T04:04:00.575Z,25.00
2023-05-17T04:05:00.642Z,26.05
2023-05-17T04:06:00.615Z,28.99
2023-05-17T04:07:00.649Z,27.53
2023-05-17T04:08:00.697Z,29.51
2023-05-17T04:09:00.718Z,28.90
2023-05-17T04:10:00.747Z,26.04
2023-05-17T04:11:00.890Z,30.18
2023-05-17T04:12:00.804Z,29.47
2023-05-17T04:13:00.822Z,30.18
2023-05-17T04:14:00.839Z,26.79
2023-05-17T04:15:00.851Z,25.32
2023-05-17T04:16:00.865Z,27.11
2023-05-17T04:17:00.876Z,26.44
2023-05-17T04:18:01.051Z,26.34
2023-05-17T04:19:01.052Z,26.00
2023-05-17T04:20:00.943Z,29.00
2023-05-17T04:21:00.966Z,29.62
2023-05-17T04:22:00.998Z,27.66
2023-05-17T04:23:01.013Z,27.88
2023-05-17T04:24:01.031Z,25.92
2023-05-17T04:25:01.081Z,28.09
2023-05-17T04:26:01.137Z,28.08
2023-05-17T04:27:03.354Z,25.34
2023-05-17T04:28:01.137Z,32.71
2023-05-17T04:29:01.130Z,25.84
2023-05-17T04:30:01.140Z,25.93
2023-05-17T04:31:01.124Z,26.53
2023-05-17T04:32:01.112Z,27.20
2023-05-17T04:33:01.203Z,27.55
2023-05-17T04:34:01.157Z,26.76
2023-05-17T04:35:01.124Z,27.86
2023-05-17T04:36:01.100Z,27.05
2023-05-17T04:37:01.084Z,26.99
2023-05-17T04:38:01.069Z,27.10
2023-05-17T04:39:01.066Z,29.42
2023-05-17T04:40:01.060Z,29.19
2023-05-17T04:41:01.053Z,29.73
2023-05-17T04:42:01.044Z,28.57
2023-05-17T04:43:01.158Z,27.45
2023-05-17T04:44:01.039Z,29.01
2023-05-17T04:45:01.049Z,29.06
2023-05-17T04:46:01.061Z,27.79
2023-05-17T04:47:01.011Z,27.87
2023-05-17T04:48:01.084Z,25.00
2023-05-17T04:49:01.007Z,27.80
2023-05-17T04:50:00.984Z,27.66
2023-05-17T04:51:00.990Z,29.01
2023-05-17T04:52:00.970Z,27.71
2023-05-17T04:53:00.976Z,28.12
2023-05-17T04:54:01.056Z,30.31
2023-05-17T04:55:00.954Z,30.31
2023-05-17T04:56:00.958Z,28.86
2023-05-17T04:57:00.941Z,27.99
2023-05-17T04:58:00.951Z,28.77
2023-05-17T04:59:01.062Z,31.76
2023-05-17T05:00:00.922Z,27.02
2023-05-17T05:01:00.906Z,26.77
2023-05-17T05:02:00.902Z,28.60
2023-05-17T05:03:00.921Z,28.02
2023-05-17T05:04:00.957Z,26.88
2023-05-17T05:05:01.028Z,28.68
2023-05-17T05:06:00.899Z,25.68
2023-05-17T05:07:00.917Z,25.34
2023-05-17T05:08:00.922Z,29.47
2023-05-17T05:09:00.947Z,30.55
2023-05-17T05:10:00.967Z,25.82
2023-05-17T05:11:00.998Z,28.68
2023-05-17T05:12:01.021Z,28.03
2023-05-17T05:13:01.441Z,28.14
2023-05-17T05:14:01.083Z,27.85
2023-05-17T05:15:01.458Z,27.13
2023-05-17T05:16:01.185Z,29.44
2023-05-17T05:17:01.221Z,25.41
2023-05-17T05:18:01.500Z,27.21
2023-05-17T05:19:01.387Z,29.25
2023-05-17T05:20:01.336Z,31.52
2023-05-17T05:21:01.348Z,36.99
2023-05-17T05:22:01.381Z,35.20
2023-05-17T05:23:01.438Z,32.16
2023-05-17T05:24:01.470Z,33.85
2023-05-17T05:25:01.942Z,34.57
2023-05-17T05:26:01.535Z,34.62
2023-05-17T05:27:01.569Z,38.12
2023-05-17T05:28:01.622Z,36.73
2023-05-17T05:29:01.673Z,38.74
2023-05-17T05:30:01.713Z,37.98
2023-05-17T05:31:01.916Z,33.42
2023-05-17T05:32:01.790Z,37.08
2023-05-17T05:33:02.092Z,39.25
2023-05-17T05:34:01.932Z,40.94
2023-05-17T05:35:01.951Z,38.15
2023-05-17T05:36:02.080Z,40.08
2023-05-17T05:37:02.043Z,39.50
2023-05-17T05:38:02.098Z,39.55
2023-05-17T05:39:02.136Z,37.37
2023-05-17T05:40:02.179Z,37.31
2023-05-17T05:41:02.236Z,40.39
2023-05-17T05:42:02.264Z,41.54
2023-05-17T05:43:02.460Z,42.55
2023-05-17T05:44:02.369Z,41.01
2023-05-17T05:45:02.415Z,42.72
2023-05-17T05:46:02.465Z,42.18
2023-05-17T05:47:03.072Z,40.47
2023-05-17T05:48:03.008Z,42.53
2023-05-17T05:49:02.784Z,46.60
2023-05-17T05:50:02.716Z,44.68
2023-05-17T05:51:02.753Z,48.23
2023-05-17T05:52:02.817Z,43.37
2023-05-17T05:53:17.114Z,44.38
2023-05-17T05:54:02.878Z,44.80
2023-05-17T05:55:06.161Z,45.97
2023-05-17T05:57:10.265Z,45.53
2023-05-17T05:58:02.868Z,45.85
2023-05-17T05:59:02.849Z,50.51
2023-05-17T06:00:02.842Z,59.26
2023-05-17T06:01:05.368Z,73.85
2023-05-17T06:02:10.365Z,46.36
2023-05-17T06:03:03.017Z,46.52
2023-05-17T06:04:06.041Z,54.52
2023-05-17T06:05:02.803Z,47.04
2023-05-17T06:06:02.904Z,55.34
2023-05-17T06:07:02.834Z,71.35
2023-05-17T06:08:02.966Z,94.45
2023-05-17T06:09:02.789Z,127.09
2023-05-17T06:10:02.785Z,136.48
2023-05-17T06:11:02.760Z,137.79
2023-05-17T06:12:02.753Z,140.21
2023-05-17T06:13:02.968Z,142.89
2023-05-17T06:14:02.758Z,146.63
2023-05-17T06:15:02.723Z,149.48
2023-05-17T06:16:02.736Z,152.94
2023-05-17T06:17:02.717Z,153.99
2023-05-17T06:18:03.116Z,161.38
2023-05-17T06:19:02.891Z,163.01
2023-05-17T06:20:02.804Z,167.31
2023-05-17T06:21:03.474Z,170.90
2023-05-17T06:22:02.697Z,172.85
2023-05-17T06:23:02.971Z,172.88
2023-05-17T06:24:04.905Z,177.77
2023-05-17T06:25:02.659Z,185.46
2023-05-17T06:26:02.690Z,185.96
2023-05-17T06:27:02.666Z,191.05
2023-05-17T06:28:03.048Z,192.86
2023-05-17T06:29:02.639Z,197.91
2023-05-17T06:30:04.886Z,199.86
2023-05-17T06:31:02.972Z,200.27
2023-05-17T06:32:02.600Z,201.37
2023-05-17T06:33:03.052Z,203.77
2023-05-17T06:34:02.749Z,209.17
2023-05-17T06:35:02.621Z,213.17
2023-05-17T06:37:01.576Z,219.73
2023-05-17T06:38:02.972Z,219.74
2023-05-17T06:39:02.559Z,225.60
2023-05-17T06:40:10.103Z,225.17
2023-05-17T06:41:02.569Z,225.77
2023-05-17T06:42:02.559Z,227.82
2023-05-17T06:43:02.985Z,230.55
2023-05-17T06:44:03.499Z,237.31
2023-05-17T06:45:05.715Z,247.44
2023-05-17T06:46:02.984Z,226.09
2023-05-17T06:47:02.555Z,228.97
2023-05-17T06:48:03.047Z,234.18
2023-05-17T06:49:02.788Z,240.33
2023-05-17T06:50:03.589Z,246.69
2023-05-17T06:51:09.872Z,243.08
2023-05-17T06:52:05.675Z,243.37
2023-05-17T06:53:05.747Z,243.68
2023-05-17T06:54:05.679Z,243.64
2023-05-17T06:55:02.461Z,243.57
2023-05-17T06:56:34.277Z,243.89
2023-05-17T06:57:09.857Z,243.54
2023-05-17T06:58:02.484Z,243.81
2023-05-17T06:59:03.180Z,244.67
2023-05-17T07:00:02.576Z,245.02
2023-05-17T07:01:09.844Z,241.93
2023-05-17T07:02:02.453Z,243.41
2023-05-17T07:03:03.944Z,243.46
2023-05-17T07:04:18.267Z,243.79
2023-05-17T07:05:10.213Z,243.32
2023-05-17T07:07:02.694Z,243.77
2023-05-17T07:08:18.979Z,244.11
2023-05-17T07:09:05.678Z,243.53
2023-05-17T07:10:02.505Z,243.50
2023-05-17T07:11:02.474Z,240.38
2023-05-17T07:12:02.461Z,234.78
2023-05-17T07:13:02.733Z,229.99
2023-05-17T07:14:02.459Z,228.61
2023-05-17T07:15:05.666Z,223.54
2023-05-17T07:16:02.493Z,223.85
2023-05-17T07:17:02.450Z,223.70
2023-05-17T07:18:02.658Z,221.01
2023-05-17T07:19:02.842Z,222.09
2023-05-17T07:20:02.690Z,219.28
2023-05-17T07:21:03.595Z,220.55
2023-05-17T07:22:02.596Z,219.71
2023-05-17T07:23:02.392Z,218.58
2023-05-17T07:24:02.532Z,216.98
2023-05-17T07:25:02.391Z,214.05
2023-05-17T07:26:02.995Z,215.37
2023-05-17T07:27:02.492Z,213.48
2023-05-17T07:28:02.556Z,211.24
2023-05-17T07:29:02.612Z,211.03
2023-05-17T07:30:02.672Z,209.47
2023-05-17T07:31:02.775Z,208.11
2023-05-17T07:32:02.798Z,206.86
2023-05-17T07:33:03.033Z,206.65
2023-05-17T07:34:02.938Z,205.20
2023-05-17T07:35:03.037Z,203.97
2023-05-17T07:36:03.517Z,202.62
2023-05-17T07:37:03.112Z,203.36
2023-05-17T07:38:03.166Z,202.95
2023-05-17T07:39:03.253Z,203.94
2023-05-17T07:40:03.593Z,206.42
2023-05-17T07:41:06.547Z,208.07
2023-05-17T07:42:05.430Z,208.36
2023-05-17T07:43:03.555Z,208.57
2023-05-17T07:44:10.831Z,210.89
2023-05-17T07:45:03.355Z,209.00
2023-05-17T07:46:03.303Z,212.40
2023-05-17T07:47:03.336Z,217.23
2023-05-17T07:48:03.686Z,225.38
2023-05-17T07:49:03.373Z,237.24
2023-05-17T07:50:06.514Z,239.34
2023-05-17T07:51:03.321Z,239.69
2023-05-17T07:52:03.259Z,240.56
2023-05-17T07:53:06.784Z,240.25
2023-05-17T07:54:10.661Z,239.73
2023-05-17T07:55:06.559Z,239.96
2023-05-17T07:56:03.591Z,240.08
2023-05-17T07:57:04.011Z,240.47
2023-05-17T07:58:19.139Z,240.21
2023-05-17T07:59:10.656Z,239.82
2023-05-17T08:00:18.824Z,240.04
2023-05-17T08:01:10.602Z,240.18
2023-05-17T08:02:18.794Z,240.29
2023-05-17T08:03:03.532Z,240.36
2023-05-17T08:04:06.434Z,241.91
2023-05-17T08:05:03.188Z,239.95
2023-05-17T08:06:03.204Z,240.11
2023-05-17T08:07:03.161Z,239.41
2023-05-17T08:08:03.520Z,237.61
2023-05-17T08:09:03.259Z,234.33
2023-05-17T08:10:03.149Z,232.08
2023-05-17T08:11:03.149Z,230.32
2023-05-17T08:12:34.920Z,230.85
2023-05-17T08:13:03.128Z,231.26
2023-05-17T08:14:03.119Z,231.91
2023-05-17T08:15:03.138Z,231.45
2023-05-17T08:16:12.721Z,228.98
2023-05-17T08:17:03.344Z,231.24
2023-05-17T08:18:04.924Z,231.69
2023-05-17T08:19:04.764Z,231.12
2023-05-17T08:20:03.219Z,231.20
2023-05-17T08:21:03.071Z,231.85
2023-05-17T08:22:03.076Z,230.14
2023-05-17T08:23:03.532Z,227.19
2023-05-17T08:24:04.116Z,225.58
2023-05-17T08:25:03.103Z,227.11
2023-05-17T08:26:03.037Z,223.55
2023-05-17T08:27:03.027Z,223.10
2023-05-17T08:28:03.610Z,221.80
2023-05-17T08:29:03.049Z,222.88
2023-05-17T08:30:05.458Z,220.30
2023-05-17T08:31:03.300Z,220.63
2023-05-17T08:32:03.081Z,221.03
2023-05-17T08:34:04.162Z,220.69
2023-05-17T08:35:03.066Z,220.68
2023-05-17T08:36:03.061Z,220.79
2023-05-17T08:37:03.560Z,220.78
2023-05-17T08:38:03.426Z,218.72
2023-05-17T08:39:03.058Z,221.28
2023-05-17T08:40:03.077Z,216.44
2023-05-17T08:41:06.359Z,216.18
2023-05-17T08:42:03.524Z,216.39
2023-05-17T08:43:03.564Z,216.44
2023-05-17T08:44:03.542Z,216.32
2023-05-17T08:45:04.077Z,215.35
2023-05-17T08:46:03.530Z,219.13
2023-05-17T08:47:03.023Z,215.05
2023-05-17T08:48:03.566Z,214.26
2023-05-17T08:49:03.167Z,213.49
2023-05-17T08:50:03.045Z,213.54
2023-05-17T08:51:03.014Z,212.89
2023-05-17T08:52:03.018Z,214.56
2023-05-17T08:53:03.056Z,213.00
2023-05-17T08:54:03.077Z,212.06
2023-05-17T08:55:03.518Z,212.71
2023-05-17T08:56:03.217Z,210.97
2023-05-17T08:57:03.553Z,210.00
2023-05-17T08:58:03.304Z,212.14
2023-05-17T08:59:03.369Z,209.04
2023-05-17T09:00:03.425Z,211.41
2023-05-17T09:01:03.507Z,212.82
2023-05-17T09:02:04.032Z,211.39
2023-05-17T09:03:04.114Z,209.97
2023-05-17T09:04:04.665Z,208.76
2023-05-17T09:05:07.053Z,209.44
2023-05-17T09:06:03.917Z,209.53
2023-05-17T09:07:04.030Z,209.50
2023-05-17T09:08:03.708Z,209.87
2023-05-17T09:09:03.711Z,208.11
2023-05-17T09:10:03.689Z,208.73
2023-05-17T09:11:03.697Z,207.30
2023-05-17T09:12:04.550Z,206.25
2023-05-17T09:13:03.701Z,205.23
2023-05-17T09:14:03.678Z,202.71
2023-05-17T09:15:03.674Z,205.44
2023-05-17T09:16:03.660Z,203.85
2023-05-17T09:17:04.623Z,204.27
2023-05-17T09:18:04.174Z,202.88
2023-05-17T09:19:04.560Z,202.96
2023-05-17T09:20:03.723Z,207.75
2023-05-17T09:21:11.019Z,205.41
2023-05-17T09:22:03.631Z,205.71
2023-05-17T09:23:04.036Z,205.81
2023-05-17T09:24:07.780Z,205.75
2023-05-17T09:25:03.586Z,205.81
2023-05-17T09:26:03.635Z,206.76
2023-05-17T09:27:03.609Z,205.41
2023-05-17T09:28:04.072Z,206.60
2023-05-17T09:29:03.624Z,209.04
2023-05-17T09:30:04.061Z,211.77
2023-05-17T09:31:06.773Z,100.62
2023-05-17T09:32:04.551Z,0.00
2023-05-17T09:33:03.576Z,0.00
2023-05-17T09:34:03.566Z,0.00
2023-05-17T09:35:03.578Z,0.00
2023-05-17T09:36:04.538Z,0.00
2023-05-17T09:37:04.525Z,0.00
2023-05-17T09:38:03.558Z,0.00
2023-05-17T09:39:03.484Z,0.00
2023-05-17T09:40:03.486Z,0.00
2023-05-17T09:41:03.462Z,0.52
2023-05-17T09:42:03.546Z,14.55
2023-05-17T09:43:03.563Z,25.00
2023-05-17T09:44:03.447Z,24.56
2023-05-17T09:45:03.552Z,25.46
2023-05-17T09:46:03.433Z,27.69
2023-05-17T09:47:03.439Z,31.05
2023-05-17T09:48:03.616Z,49.21
2023-05-17T09:49:04.288Z,53.71
2023-05-17T09:50:03.469Z,59.03
2023-05-17T09:51:04.510Z,66.93
2023-05-17T09:52:03.565Z,71.83
2023-05-17T09:53:04.093Z,79.64
2023-05-17T09:54:03.623Z,86.93
2023-05-17T09:55:03.603Z,93.99
2023-05-17T09:56:03.679Z,101.60
2023-05-17T09:57:03.704Z,106.74
2023-05-17T09:58:04.087Z,111.49
2023-05-17T09:59:03.805Z,113.83
2023-05-17T10:00:03.862Z,117.57
2023-05-17T10:01:03.901Z,119.87
2023-05-17T10:02:07.089Z,122.75
2023-05-17T10:03:04.132Z,122.95
2023-05-17T10:04:03.919Z,124.00
2023-05-17T10:05:03.934Z,126.34
2023-05-17T10:06:03.962Z,131.50
2023-05-17T10:07:03.853Z,136.76
2023-05-17T10:08:03.847Z,144.76
2023-05-17T10:09:03.840Z,148.36
2023-05-17T10:10:04.057Z,152.58
2023-05-17T10:11:03.827Z,155.06
2023-05-17T10:12:03.811Z,158.05
2023-05-17T10:13:03.834Z,163.93
2023-05-17T10:14:03.807Z,168.11
2023-05-17T10:15:03.852Z,172.09
2023-05-17T10:16:03.798Z,174.90
2023-05-17T10:17:03.840Z,178.07
2023-05-17T10:18:03.902Z,182.33
2023-05-17T10:19:03.865Z,185.06
2023-05-17T10:20:03.949Z,189.58
2023-05-17T10:21:03.777Z,194.07
2023-05-17T10:23:02.740Z,195.38
2023-05-17T10:24:06.928Z,196.49
2023-05-17T10:25:04.062Z,195.51
2023-05-17T10:26:03.717Z,197.43
2023-05-17T10:27:03.716Z,201.79
2023-05-17T10:28:03.724Z,208.31
2023-05-17T10:29:03.725Z,218.41
2023-05-17T10:30:05.103Z,223.62
2023-05-17T10:31:03.706Z,228.47
2023-05-17T10:32:04.017Z,230.66
2023-05-17T10:33:04.003Z,230.60
2023-05-17T10:34:03.771Z,233.51
2023-05-17T10:35:11.447Z,236.44
2023-05-17T10:36:03.765Z,236.68
2023-05-17T10:37:03.754Z,237.76
2023-05-17T10:38:04.060Z,239.34
2023-05-17T10:39:03.735Z,242.67
2023-05-17T10:40:03.729Z,244.53
2023-05-17T10:41:04.724Z,247.47
2023-05-17T10:42:14.354Z,248.19
2023-05-17T10:43:04.094Z,248.44
2023-05-17T10:44:03.717Z,249.29
2023-05-17T10:45:04.069Z,250.14
2023-05-17T10:46:03.700Z,252.92
2023-05-17T10:47:03.690Z,258.24
2023-05-17T10:48:03.810Z,249.95
2023-05-17T10:49:04.141Z,248.87
2023-05-17T10:50:03.662Z,249.53
2023-05-17T10:51:03.671Z,249.60
2023-05-17T10:52:03.647Z,250.00
2023-05-17T10:53:03.648Z,249.33
2023-05-17T10:54:04.078Z,250.00
2023-05-17T10:55:03.636Z,249.55
2023-05-17T10:56:03.639Z,250.00
2023-05-17T10:57:03.636Z,249.92
2023-05-17T10:58:03.620Z,250.00
2023-05-17T10:59:03.605Z,249.16
2023-05-17T11:00:03.604Z,249.68
2023-05-17T11:01:03.605Z,249.63
2023-05-17T11:02:03.581Z,250.00
2023-05-17T11:03:03.650Z,249.60
2023-05-17T11:04:04.068Z,249.05
2023-05-17T11:05:04.157Z,249.08
2023-05-17T11:06:03.744Z,249.42
2023-05-17T11:07:04.854Z,248.60
2023-05-17T11:08:03.544Z,248.70
2023-05-17T11:09:03.570Z,249.06
2023-05-17T11:10:03.527Z,249.41
2023-05-17T11:11:03.549Z,250.96
2023-05-17T11:12:03.527Z,253.85
2023-05-17T11:13:03.567Z,249.33
2023-05-17T11:14:03.520Z,248.49
2023-05-17T11:15:03.501Z,247.36
2023-05-17T11:16:03.509Z,245.06
2023-05-17T11:17:03.486Z,245.17
2023-05-17T11:18:03.521Z,244.65
2023-05-17T11:19:03.659Z,245.49
2023-05-17T11:20:03.529Z,245.45
2023-05-17T11:21:03.576Z,244.73
2023-05-17T11:22:03.450Z,243.75
2023-05-17T11:23:03.439Z,240.82
2023-05-17T11:24:03.449Z,240.60
2023-05-17T11:25:03.456Z,237.15
2023-05-17T11:26:15.335Z,235.41
2023-05-17T11:27:03.421Z,235.56
2023-05-17T11:28:03.411Z,235.89
2023-05-17T11:29:03.409Z,235.91
2023-05-17T11:30:03.409Z,233.56
2023-05-17T11:31:03.423Z,231.36
2023-05-17T11:32:03.384Z,230.68
2023-05-17T11:33:03.740Z,229.04
2023-05-17T11:34:03.457Z,227.39
2023-05-17T11:35:03.367Z,223.79
2023-05-17T11:36:03.356Z,224.64
2023-05-17T11:37:03.384Z,226.20
2023-05-17T11:38:03.345Z,225.60
2023-05-17T11:39:08.186Z,224.84
2023-05-17T11:40:03.336Z,224.98
2023-05-17T11:41:04.700Z,225.27
2023-05-17T11:42:03.346Z,225.11
2023-05-17T11:43:03.311Z,225.65
2023-05-17T11:44:03.311Z,226.44
2023-05-17T11:45:03.329Z,228.22
2023-05-17T11:46:03.359Z,229.70
2023-05-17T11:47:03.389Z,230.49
2023-05-17T11:48:03.322Z,230.38
2023-05-17T11:49:03.279Z,230.37
2023-05-17T11:50:03.261Z,231.87
2023-05-17T11:51:03.261Z,234.07
2023-05-17T11:52:03.248Z,235.54
2023-05-17T11:53:03.263Z,236.30
2023-05-17T11:54:03.247Z,237.04
2023-05-17T11:55:03.241Z,237.03
2023-05-17T11:56:03.235Z,237.74
2023-05-17T11:57:03.216Z,239.09
2023-05-17T11:58:03.208Z,238.13
2023-05-17T11:59:03.202Z,238.93
2023-05-17T12:00:03.599Z,240.47
2023-05-17T12:01:03.196Z,242.96
2023-05-17T12:02:03.188Z,243.01
2023-05-17T12:03:03.224Z,244.57
2023-05-17T12:04:03.201Z,245.97
2023-05-17T12:05:03.350Z,246.02
2023-05-17T12:06:03.245Z,245.24
2023-05-17T12:07:03.166Z,245.65
2023-05-17T12:08:03.152Z,246.73
2023-05-17T12:09:03.638Z,245.82
2023-05-17T12:10:03.130Z,247.29
2023-05-17T12:11:03.616Z,247.12
2023-05-17T12:12:03.137Z,249.51
2023-05-17T12:13:03.117Z,249.29
2023-05-17T12:14:03.117Z,249.40
2023-05-17T12:15:03.114Z,250.00
2023-05-17T12:16:03.109Z,250.26
2023-05-17T12:17:03.111Z,249.21
2023-05-17T12:18:03.179Z,250.15
2023-05-17T12:19:03.292Z,249.82
2023-05-17T12:20:03.181Z,250.00
2023-05-17T12:21:03.060Z,249.27
2023-05-17T12:22:03.051Z,249.65
2023-05-17T12:23:03.044Z,249.60
2023-05-17T12:24:03.066Z,248.50
2023-05-17T12:25:03.065Z,249.22
2023-05-17T12:26:03.031Z,250.00
2023-05-17T12:27:10.492Z,249.33
2023-05-17T12:28:03.068Z,249.53
2023-05-17T12:29:03.028Z,250.26
2023-05-17T12:30:03.061Z,251.30
2023-05-17T12:31:03.047Z,252.39
2023-05-17T12:32:03.016Z,256.59
2023-05-17T12:33:03.093Z,248.27
2023-05-17T12:34:03.183Z,249.98
2023-05-17T12:35:03.042Z,249.27
2023-05-17T12:36:03.037Z,249.76
2023-05-17T12:37:02.967Z,249.74
2023-05-17T12:38:03.003Z,249.41
2023-05-17T12:39:02.951Z,249.56
2023-05-17T12:40:03.106Z,249.63
2023-05-17T12:41:02.971Z,249.37
2023-05-17T12:42:02.961Z,250.00
2023-05-17T12:43:03.049Z,249.79
2023-05-17T12:44:14.400Z,249.10
2023-05-17T12:45:02.927Z,249.36
2023-05-17T12:46:03.853Z,249.93
2023-05-17T12:47:03.325Z,251.62